Time;durP1;ratioP1;P1;durP2;ratioP2;P2;SDS_P1;SDS_P2;PMS_P1;PMS_P2;Temp;Humidity;BMP_temperature;BMP_pressure;BME280_temperature;BME280_humidity;BME280_pressure;Samples;Min_cycle;Max_cycle;Signal;HPM_P1;HPM_P2
2023/07/31 00:01:48;;;;;;;1.90;1.17;;;26.40;74.40;;;;;;5101562;28;20204;-84
2023/07/31 00:04:17;;;;;;;0.73;0.52;;;26.40;74.70;;;;;;5099230;28;20276;-83
2023/07/31 00:06:46;;;;;;;1.40;1.00;;;26.30;75.00;;;;;;5102093;28;20197;-83
2023/07/31 00:09:14;;;;;;;1.35;1.02;;;26.30;75.50;;;;;;5104771;28;20709;-83
2023/07/31 00:11:44;;;;;;;1.83;1.42;;;26.30;75.60;;;;;;5102884;28;20542;-84
2023/07/31 00:14:13;;;;;;;1.63;1.05;;;26.20;76.00;;;;;;5086011;28;20512;-83
2023/07/31 00:16:41;;;;;;;1.63;1.38;;;26.20;75.90;;;;;;5102731;28;20189;-82
2023/07/31 00:19:10;;;;;;;0.85;0.60;;;26.20;76.30;;;;;;5106403;28;20718;-83
2023/07/31 00:21:39;;;;;;;3.65;1.58;;;26.10;77.00;;;;;;5107888;28;20221;-84
2023/07/31 00:24:07;;;;;;;2.95;1.63;;;26.10;77.30;;;;;;5105641;28;20193;-83
2023/07/31 00:26:36;;;;;;;0.90;0.52;;;26.00;77.20;;;;;;5101023;28;20193;-83
2023/07/31 00:29:07;;;;;;;13.27;1.02;;;26.00;77.20;;;;;;5103309;28;20320;-82
2023/07/31 00:31:35;;;;;;;0.73;0.73;;;26.00;77.60;;;;;;5107611;28;20196;-83
2023/07/31 00:34:04;;;;;;;0.68;0.65;;;26.00;77.80;;;;;;5090759;28;20213;-83
2023/07/31 00:36:33;;;;;;;2.60;1.38;;;26.00;78.20;;;;;;5101402;28;20226;-82
2023/07/31 00:39:01;;;;;;;1.15;0.93;;;25.90;78.70;;;;;;5105796;28;20203;-82
2023/07/31 00:41:30;;;;;;;1.27;0.98;;;25.80;78.80;;;;;;5109261;28;20201;-85
2023/07/31 00:43:59;;;;;;;0.60;0.60;;;25.90;78.60;;;;;;5110376;28;20193;-83
2023/07/31 00:46:28;;;;;;;0.40;0.40;;;25.90;79.50;;;;;;5110570;27;20208;-82
2023/07/31 00:48:58;;;;;;;0.47;0.47;;;25.90;79.30;;;;;;5109328;27;20193;-82
2023/07/31 00:51:27;;;;;;;0.77;0.50;;;25.80;79.80;;;;;;5107374;27;20303;-83
2023/07/31 00:53:57;;;;;;;1.00;0.70;;;25.90;79.40;;;;;;5105956;28;20190;-82
2023/07/31 00:56:26;;;;;;;0.52;0.47;;;25.80;80.10;;;;;;5112310;28;20201;-83
2023/07/31 00:58:56;;;;;;;0.90;0.63;;;25.80;80.20;;;;;;5105970;28;20204;-84
2023/07/31 01:01:24;;;;;;;0.98;0.70;;;25.70;80.40;;;;;;5106023;28;20193;-83
2023/07/31 01:03:55;;;;;;;2.10;1.13;;;25.70;81.30;;;;;;5110719;28;20671;-83
2023/07/31 01:06:35;;;;;;;0.68;0.68;;;25.70;80.50;;;;;;5109435;28;20297;-85
2023/07/31 01:09:11;;;;;;;0.50;0.50;;;25.70;81.50;;;;;;5107351;28;20203;-82
2023/07/31 01:11:47;;;;;;;1.05;0.90;;;25.70;81.70;;;;;;5102960;27;20219;-84
2023/07/31 01:14:16;;;;;;;0.65;0.65;;;25.60;81.50;;;;;;5105147;28;20544;-83
2023/07/31 01:16:45;;;;;;;3.45;1.73;;;25.60;82.70;;;;;;5106850;28;20197;-84
2023/07/31 01:19:19;;;;;;;2.75;1.67;;;25.50;83.60;;;;;;5089235;28;20258;-84
2023/07/31 01:22:07;;;;;;;1.90;1.05;;;25.40;84.40;;;;;;5105397;28;20233;-84
2023/07/31 01:24:50;;;;;;;1.25;1.08;;;25.40;84.50;;;;;;5106194;28;20216;-85
2023/07/31 01:27:26;;;;;;;1.00;0.73;;;25.40;84.20;;;;;;5105311;27;20181;-84
2023/07/31 01:30:10;;;;;;;1.25;0.82;;;25.30;84.80;;;;;;5105232;28;20239;-82
2023/07/31 01:32:41;;;;;;;1.35;0.75;;;25.20;84.50;;;;;;5105926;28;20231;-84
2023/07/31 01:35:11;;;;;;;4.75;2.45;;;25.20;83.80;;;;;;5085025;28;20276;-83
2023/07/31 01:37:39;;;;;;;0.73;0.60;;;25.20;83.20;;;;;;5105835;28;20215;-84
2023/07/31 01:40:09;;;;;;;0.93;0.82;;;25.20;82.80;;;;;;5109212;28;20612;-84
2023/07/31 01:42:39;;;;;;;0.95;0.85;;;25.20;82.60;;;;;;5105374;27;20280;-83
2023/07/31 01:45:09;;;;;;;0.50;0.50;;;25.20;82.50;;;;;;5106693;28;20231;-84
2023/07/31 01:47:37;;;;;;;0.57;0.55;;;25.20;82.40;;;;;;5105343;27;20332;-83
2023/07/31 01:50:07;;;;;;;0.45;0.40;;;25.10;83.00;;;;;;5109158;28;20635;-83
2023/07/31 01:52:36;;;;;;;1.50;0.65;;;25.10;83.80;;;;;;5110280;28;20189;-84
2023/07/31 01:55:05;;;;;;;0.73;0.73;;;25.10;84.40;;;;;;5104444;28;20197;-84
2023/07/31 01:57:34;;;;;;;2.58;1.23;;;25.00;84.60;;;;;;5104675;28;20192;-84
2023/07/31 02:00:06;;;;;;;1.48;1.38;;;25.00;85.80;;;;;;5089195;28;20197;-83
2023/07/31 02:02:35;;;;;;;0.45;0.45;;;24.90;86.70;;;;;;5102229;28;20636;-82
2023/07/31 02:05:04;;;;;;;0.60;0.35;;;24.90;87.40;;;;;;5094991;27;20286;-83
2023/07/31 02:07:33;;;;;;;1.15;1.05;;;24.80;88.10;;;;;;5101385;28;20204;-85
2023/07/31 02:10:02;;;;;;;0.70;0.57;;;24.70;89.00;;;;;;5105673;28;20204;-83
2023/07/31 02:12:31;;;;;;;1.05;0.73;;;24.70;89.40;;;;;;5105429;28;20532;-83
2023/07/31 02:15:00;;;;;;;0.80;0.80;;;24.60;90.10;;;;;;5109118;28;20198;-83
2023/07/31 02:17:30;;;;;;;0.95;0.88;;;24.60;90.00;;;;;;5088502;28;20192;-84
2023/07/31 02:19:59;;;;;;;0.57;0.57;;;24.50;90.20;;;;;;5107005;28;20221;-84
2023/07/31 02:22:27;;;;;;;1.13;0.90;;;24.50;90.50;;;;;;5105449;28;20211;-82
2023/07/31 02:24:56;;;;;;;1.30;1.13;;;24.40;91.10;;;;;;5087210;28;20201;-83
2023/07/31 02:27:27;;;;;;;2.67;1.27;;;24.40;91.00;;;;;;5108185;28;20196;-82
2023/07/31 02:29:56;;;;;;;0.70;0.63;;;24.30;91.10;;;;;;5106605;28;20197;-81
2023/07/31 02:32:24;;;;;;;0.68;0.68;;;24.30;90.70;;;;;;5104589;28;20221;-81
2023/07/31 02:34:54;;;;;;;2.10;1.20;;;24.30;90.80;;;;;;5104925;28;20413;-81
2023/07/31 02:37:23;;;;;;;0.65;0.50;;;24.30;90.80;;;;;;5105508;28;20637;-83
2023/07/31 02:39:51;;;;;;;0.60;0.60;;;24.30;90.80;;;;;;5089434;28;20447;-83
2023/07/31 02:42:20;;;;;;;0.65;0.65;;;24.30;90.60;;;;;;5106927;28;20197;-82
2023/07/31 02:44:51;;;;;;;1.45;0.80;;;24.20;90.70;;;;;;5105319;28;20196;-82
2023/07/31 02:47:19;;;;;;;0.90;0.52;;;24.30;90.50;;;;;;5103330;27;20284;-82
2023/07/31 02:49:48;;;;;;;0.47;0.40;;;24.20;90.70;;;;;;5104098;28;20194;-81
2023/07/31 02:52:18;;;;;;;0.85;0.85;;;24.20;90.20;;;;;;5104684;28;20239;-83
2023/07/31 02:54:46;;;;;;;0.93;0.50;;;24.20;90.40;;;;;;5105368;28;20189;-82
2023/07/31 02:57:16;;;;;;;2.60;0.65;;;24.20;90.40;;;;;;5106355;28;20200;-82
2023/07/31 02:59:44;;;;;;;0.57;0.50;;;24.20;90.30;;;;;;5088997;28;20904;-81
2023/07/31 03:02:14;;;;;;;2.45;1.35;;;24.20;90.60;;;;;;5105206;27;20193;-81
2023/07/31 03:04:42;;;;;;;1.42;0.85;;;24.10;90.60;;;;;;5103645;27;20202;-81
2023/07/31 03:07:11;;;;;;;0.80;0.70;;;24.10;90.80;;;;;;5102945;28;20189;-82
2023/07/31 03:09:41;;;;;;;0.40;0.40;;;24.10;91.20;;;;;;5101100;28;20612;-81
2023/07/31 03:12:09;;;;;;;0.63;0.63;;;24.00;91.10;;;;;;5097887;28;20209;-80
2023/07/31 03:14:38;;;;;;;0.70;0.70;;;24.00;90.90;;;;;;5099247;28;20232;-81
2023/07/31 03:17:07;;;;;;;0.57;0.57;;;24.00;90.80;;;;;;5106285;28;20196;-81
2023/07/31 03:19:36;;;;;;;1.33;1.23;;;24.00;90.70;;;;;;5106800;28;20245;-80
2023/07/31 03:22:05;;;;;;;0.20;0.20;;;24.00;90.60;;;;;;5105497;28;21171;-81
2023/07/31 03:24:33;;;;;;;0.20;0.20;;;24.00;90.50;;;;;;5103711;28;20193;-80
2023/07/31 03:27:04;;;;;;;1.35;0.50;;;24.00;90.30;;;;;;5103402;28;20232;-81
2023/07/31 03:29:32;;;;;;;1.95;0.95;;;23.90;90.10;;;;;;5105184;28;20786;-82
2023/07/31 03:32:00;;;;;;;0.55;0.45;;;23.90;90.00;;;;;;5097961;27;20220;-81
2023/07/31 03:34:31;;;;;;;0.40;0.40;;;23.90;90.10;;;;;;5105821;28;20189;-82
2023/07/31 03:37:00;;;;;;;0.90;0.57;;;23.90;90.20;;;;;;5104265;28;20181;-82
2023/07/31 03:39:28;;;;;;;0.75;0.52;;;23.90;90.20;;;;;;5103580;28;20197;-81
2023/07/31 03:41:57;;;;;;;0.60;0.60;;;23.90;90.40;;;;;;5099979;28;20199;-81
2023/07/31 03:44:27;;;;;;;0.20;0.20;;;23.90;90.00;;;;;;5107078;28;20263;-82
2023/07/31 03:46:56;;;;;;;0.30;0.30;;;23.90;90.00;;;;;;5105377;28;20215;-80
2023/07/31 03:49:24;;;;;;;1.55;1.15;;;23.90;89.90;;;;;;5101144;28;20253;-81
2023/07/31 03:51:53;;;;;;;1.08;0.70;;;23.90;90.00;;;;;;5103723;28;20277;-82
2023/07/31 03:54:21;;;;;;;2.15;1.42;;;23.90;90.20;;;;;;5097035;28;20193;-81
2023/07/31 03:56:50;;;;;;;0.98;0.93;;;23.90;90.30;;;;;;5101954;28;20189;-81
2023/07/31 03:59:19;;;;;;;1.27;0.40;;;23.90;90.40;;;;;;5098675;28;20208;-81
2023/07/31 04:01:49;;;;;;;0.60;0.50;;;23.90;90.40;;;;;;5101975;28;20203;-81
2023/07/31 04:04:17;;;;;;;0.70;0.70;;;23.90;90.60;;;;;;5102902;28;22184;-82
2023/07/31 04:06:45;;;;;;;0.98;0.88;;;23.90;90.50;;;;;;5099953;28;20323;-82
2023/07/31 04:09:14;;;;;;;1.27;1.10;;;23.90;90.70;;;;;;5105307;28;20200;-82
2023/07/31 04:11:42;;;;;;;1.10;0.82;;;23.90;91.40;;;;;;5102754;28;20220;-82
2023/07/31 04:14:11;;;;;;;1.40;1.02;;;23.90;91.60;;;;;;5107732;28;20203;-83
2023/07/31 04:16:39;;;;;;;1.65;1.05;;;23.90;92.00;;;;;;5104068;28;20204;-82
2023/07/31 04:19:10;;;;;;;2.22;1.38;;;23.90;91.90;;;;;;5107243;28;20315;-80
2023/07/31 04:21:39;;;;;;;0.80;0.70;;;23.90;91.60;;;;;;5106110;27;20224;-82
2023/07/31 04:24:07;;;;;;;0.93;0.88;;;23.90;91.50;;;;;;5103294;28;20204;-82
2023/07/31 04:26:36;;;;;;;0.63;0.63;;;23.90;91.50;;;;;;5106960;28;20648;-82
2023/07/31 04:29:05;;;;;;;0.80;0.80;;;23.90;91.40;;;;;;5111304;28;20597;-82
2023/07/31 04:31:34;;;;;;;0.57;0.55;;;23.90;91.40;;;;;;5103264;28;20201;-81
2023/07/31 04:34:06;;;;;;;0.95;0.85;;;23.90;91.40;;;;;;5111058;28;20197;-83
2023/07/31 04:36:37;;;;;;;1.10;1.00;;;24.00;91.60;;;;;;5106168;28;20189;-82
2023/07/31 04:39:05;;;;;;;1.20;0.98;;;23.90;91.70;;;;;;5112285;28;20202;-80
2023/07/31 04:41:34;;;;;;;1.27;0.93;;;23.90;92.50;;;;;;5111010;28;20200;-81
2023/07/31 04:44:03;;;;;;;1.63;1.02;;;23.90;92.50;;;;;;5109549;28;20197;-82
2023/07/31 04:46:31;;;;;;;0.40;0.35;;;23.90;92.50;;;;;;5105234;27;20196;-80
2023/07/31 04:49:00;;;;;;;1.38;0.90;;;23.90;92.50;;;;;;5105832;27;20197;-82
2023/07/31 04:51:28;;;;;;;1.23;0.80;;;23.90;92.60;;;;;;5109161;28;20208;-82
2023/07/31 04:53:58;;;;;;;0.90;0.85;;;23.90;92.70;;;;;;5108675;28;20533;-82
2023/07/31 04:56:26;;;;;;;0.80;0.68;;;23.90;92.70;;;;;;5108087;28;20196;-81
2023/07/31 04:58:55;;;;;;;0.90;0.80;;;23.90;92.60;;;;;;5111258;27;20919;-80
2023/07/31 05:01:24;;;;;;;0.95;0.63;;;23.90;92.70;;;;;;5106512;27;20204;-82
2023/07/31 05:03:52;;;;;;;0.70;0.70;;;23.90;92.80;;;;;;5109831;27;20284;-80
2023/07/31 05:06:21;;;;;;;1.35;0.98;;;23.90;93.30;;;;;;5108393;28;22201;-80
2023/07/31 05:08:49;;;;;;;0.75;0.50;;;23.90;93.10;;;;;;5107335;28;20717;-81
2023/07/31 05:11:19;;;;;;;0.75;0.65;;;24.00;92.80;;;;;;5106463;27;20189;-81
2023/07/31 05:13:48;;;;;;;1.45;1.13;;;23.90;93.00;;;;;;5103027;28;20695;-81
2023/07/31 05:16:16;;;;;;;0.20;0.20;;;24.00;92.90;;;;;;5107289;28;20193;-81
2023/07/31 05:18:44;;;;;;;1.23;0.60;;;23.90;92.80;;;;;;5110660;28;20224;-82
2023/07/31 05:21:13;;;;;;;0.55;0.55;;;24.00;92.80;;;;;;5110672;28;20219;-81
2023/07/31 05:23:41;;;;;;;0.30;0.30;;;24.00;92.80;;;;;;5109658;28;20189;-82
2023/07/31 05:26:10;;;;;;;0.60;0.60;;;24.00;92.70;;;;;;5109292;28;20621;-82
2023/07/31 05:28:41;;;;;;;0.50;0.40;;;24.00;92.60;;;;;;5114033;28;20238;-81
2023/07/31 05:31:09;;;;;;;1.40;0.80;;;24.00;92.50;;;;;;5108604;27;20189;-81
2023/07/31 05:33:38;;;;;;;0.30;0.30;;;24.10;92.50;;;;;;5106564;28;20225;-82
2023/07/31 05:36:07;;;;;;;0.90;0.82;;;24.10;92.30;;;;;;5106215;28;20603;-80
2023/07/31 05:38:35;;;;;;;0.95;0.73;;;24.10;92.30;;;;;;5102872;28;20201;-83
2023/07/31 05:41:04;;;;;;;0.50;0.50;;;24.20;92.50;;;;;;5111168;28;20569;-82
2023/07/31 05:43:33;;;;;;;0.47;0.30;;;24.20;92.50;;;;;;5102807;28;20285;-81
2023/07/31 05:46:03;;;;;;;0.68;0.55;;;24.20;92.40;;;;;;5105904;28;20454;-80
2023/07/31 05:48:35;;;;;;;0.32;0.32;;;24.20;92.60;;;;;;5104984;27;20667;-81
2023/07/31 05:51:03;;;;;;;0.60;0.60;;;24.30;92.50;;;;;;5106047;27;20555;-80
2023/07/31 05:53:33;;;;;;;0.70;0.30;;;24.30;92.60;;;;;;5104861;28;20231;-79
2023/07/31 05:56:01;;;;;;;0.30;0.30;;;24.30;92.50;;;;;;5099686;27;20764;-81
2023/07/31 05:58:30;;;;;;;0.40;0.35;;;24.40;92.50;;;;;;5099408;28;20198;-81
2023/07/31 06:00:59;;;;;;;0.70;0.70;;;24.40;92.50;;;;;;5105305;28;20197;-81
2023/07/31 06:03:29;;;;;;;0.45;0.45;;;24.40;92.40;;;;;;5103774;27;20201;-81
2023/07/31 06:05:57;;;;;;;1.60;0.95;;;24.50;92.30;;;;;;5107390;27;20255;-82
2023/07/31 06:08:26;;;;;;;1.73;0.32;;;24.50;92.30;;;;;;5104386;28;20193;-81
2023/07/31 06:10:55;;;;;;;0.20;0.20;;;24.50;92.10;;;;;;5100182;28;20205;-80
2023/07/31 06:13:23;;;;;;;1.27;0.70;;;24.60;92.00;;;;;;5097683;28;20235;-82
2023/07/31 06:15:51;;;;;;;1.15;0.60;;;24.60;91.90;;;;;;5096851;27;20653;-79
2023/07/31 06:18:20;;;;;;;0.43;0.32;;;24.60;92.00;;;;;;5104395;28;20189;-79
2023/07/31 06:20:53;;;;;;;0.30;0.30;;;24.70;91.80;;;;;;5104124;28;20230;-79
2023/07/31 06:23:21;;;;;;;0.20;0.20;;;24.80;91.80;;;;;;5108042;28;20189;-80
2023/07/31 06:25:50;;;;;;;0.40;0.40;;;24.80;91.70;;;;;;5105485;28;20201;-80
2023/07/31 06:28:18;;;;;;;0.95;0.45;;;24.80;91.60;;;;;;5107476;28;20196;-80
2023/07/31 06:30:47;;;;;;;0.20;0.20;;;24.80;91.50;;;;;;5104905;28;20208;-79
2023/07/31 06:33:15;;;;;;;0.77;0.45;;;24.90;91.40;;;;;;5108368;28;20221;-80
2023/07/31 06:35:45;;;;;;;1.45;0.73;;;24.90;91.40;;;;;;5107403;27;20196;-79
2023/07/31 06:38:15;;;;;;;0.17;0.17;;;25.00;91.30;;;;;;5111095;28;20195;-80
2023/07/31 06:40:44;;;;;;;0.75;0.60;;;25.00;91.70;;;;;;5104719;28;20545;-78
2023/07/31 06:43:12;;;;;;;1.17;0.50;;;25.00;91.20;;;;;;5089845;28;20201;-80
2023/07/31 06:45:41;;;;;;;0.63;0.35;;;25.00;91.10;;;;;;5085338;28;20193;-78
2023/07/31 06:48:10;;;;;;;0.57;0.43;;;25.00;91.10;;;;;;5093085;28;20201;-79
2023/07/31 06:50:39;;;;;;;0.20;0.20;;;25.10;91.00;;;;;;5108914;28;20622;-81
2023/07/31 06:53:08;;;;;;;0.75;0.57;;;25.10;91.10;;;;;;5091229;28;20213;-80
2023/07/31 06:55:38;;;;;;;0.60;0.50;;;25.10;91.00;;;;;;5105321;28;20242;-79
2023/07/31 06:58:07;;;;;;;0.47;0.47;;;25.20;90.90;;;;;;5109190;28;20197;-80
2023/07/31 07:00:35;;;;;;;0.28;0.28;;;25.20;90.90;;;;;;5106272;27;20195;-79
2023/07/31 07:03:04;;;;;;;0.40;0.40;;;25.20;90.70;;;;;;5107332;28;20197;-79
2023/07/31 07:05:33;;;;;;;0.30;0.30;;;25.20;90.70;;;;;;5108571;27;20185;-80
2023/07/31 07:08:01;;;;;;;0.30;0.30;;;25.30;90.70;;;;;;5106861;28;20198;-80
2023/07/31 07:10:30;;;;;;;0.95;0.60;;;25.30;90.60;;;;;;5104466;28;20197;-78
2023/07/31 07:13:00;;;;;;;1.38;1.05;;;25.30;90.70;;;;;;5107653;28;20278;-84
2023/07/31 07:15:28;;;;;;;1.00;0.85;;;25.30;90.70;;;;;;5109387;28;20185;-79
2023/07/31 07:17:57;;;;;;;0.60;0.35;;;25.40;90.60;;;;;;5106714;28;20193;-83
2023/07/31 07:20:25;;;;;;;1.10;0.93;;;25.40;90.50;;;;;;5102439;28;20721;-79
2023/07/31 07:22:54;;;;;;;0.30;0.30;;;25.40;90.40;;;;;;5109556;28;20193;-80
2023/07/31 07:25:22;;;;;;;0.35;0.35;;;25.40;90.40;;;;;;5105161;28;20222;-79
2023/07/31 07:27:51;;;;;;;0.40;0.40;;;25.40;90.30;;;;;;5085624;28;20224;-82
2023/07/31 07:30:21;;;;;;;1.40;0.68;;;25.50;90.30;;;;;;5105201;28;20185;-81
2023/07/31 07:32:50;;;;;;;2.55;0.38;;;25.50;90.20;;;;;;5110525;28;20193;-81
2023/07/31 07:35:18;;;;;;;0.20;0.20;;;25.50;90.20;;;;;;5105856;28;20634;-80
2023/07/31 07:37:49;;;;;;;0.95;0.77;;;25.60;90.30;;;;;;5108987;28;20674;-81
2023/07/31 07:40:20;;;;;;;0.52;0.52;;;25.60;90.10;;;;;;5104395;28;20189;-81
2023/07/31 07:42:51;;;;;;;1.17;0.70;;;25.60;90.10;;;;;;5109278;28;20273;-81
2023/07/31 07:45:21;;;;;;;0.38;0.30;;;25.70;90.10;;;;;;5105679;28;20189;-80
2023/07/31 07:47:49;;;;;;;0.85;0.47;;;25.80;90.10;;;;;;5109343;28;20185;-82
2023/07/31 07:50:18;;;;;;;0.52;0.35;;;25.80;90.00;;;;;;5106755;28;20283;-81
2023/07/31 07:52:46;;;;;;;1.75;0.65;;;25.90;90.00;;;;;;5108774;28;20193;-80
2023/07/31 07:55:15;;;;;;;0.82;0.65;;;25.90;90.00;;;;;;5113679;28;20212;-79
2023/07/31 07:57:44;;;;;;;1.67;0.95;;;26.00;89.70;;;;;;5113884;28;20185;-84
2023/07/31 08:00:14;;;;;;;0.47;0.47;;;26.00;89.40;;;;;;5113052;28;20197;-81
2023/07/31 08:02:44;;;;;;;0.65;0.43;;;26.00;89.30;;;;;;5113405;27;20196;-84
2023/07/31 08:05:14;;;;;;;0.40;0.40;;;26.10;89.40;;;;;;5113266;28;20208;-84
2023/07/31 08:07:42;;;;;;;0.57;0.55;;;26.20;89.30;;;;;;5112101;27;20193;-83
2023/07/31 08:10:11;;;;;;;1.27;1.05;;;26.20;89.40;;;;;;5110424;28;20203;-84
2023/07/31 08:12:40;;;;;;;2.33;0.38;;;26.30;89.10;;;;;;5104610;27;20221;-85
2023/07/31 08:15:09;;;;;;;1.13;1.00;;;26.40;89.10;;;;;;5109991;28;20808;-83
2023/07/31 08:17:38;;;;;;;0.60;0.60;;;26.40;88.70;;;;;;5113415;28;20629;-83
2023/07/31 08:20:09;;;;;;;1.00;0.90;;;26.40;88.60;;;;;;5111137;28;20244;-86
2023/07/31 08:22:38;;;;;;;0.35;0.35;;;26.40;88.70;;;;;;5113392;28;20222;-86
2023/07/31 08:25:08;;;;;;;0.30;0.30;;;26.50;88.60;;;;;;5113005;28;20213;-86
2023/07/31 08:27:37;;;;;;;0.40;0.40;;;26.50;88.40;;;;;;5112755;27;20189;-86
2023/07/31 08:30:09;;;;;;;0.80;0.52;;;26.50;88.20;;;;;;5110016;28;20197;-87
2023/07/31 08:32:37;;;;;;;0.20;0.20;;;26.50;88.10;;;;;;5113720;28;20710;-85
2023/07/31 08:35:25;;;;;;;0.88;0.65;;;26.60;88.30;;;;;;5109365;28;20684;-90
2023/07/31 08:37:53;;;;;;;0.52;0.50;;;26.60;88.30;;;;;;5109285;28;20201;-84
2023/07/31 08:40:28;;;;;;;0.60;0.60;;;26.60;88.20;;;;;;5110603;28;20655;-85
2023/07/31 08:43:02;;;;;;;1.63;0.68;;;26.60;88.00;;;;;;5111158;28;20193;-86
2023/07/31 08:45:32;;;;;;;0.40;0.35;;;26.60;87.80;;;;;;5105260;28;21121;-87
2023/07/31 08:48:00;;;;;;;0.50;0.50;;;26.70;87.80;;;;;;5108899;28;20197;-86
2023/07/31 08:50:30;;;;;;;0.60;0.40;;;26.70;87.70;;;;;;5105156;28;20193;-84
2023/07/31 08:52:59;;;;;;;0.65;0.60;;;26.70;87.70;;;;;;5109332;28;20285;-87
2023/07/31 08:55:29;;;;;;;5.35;0.65;;;26.70;87.70;;;;;;5112530;28;20652;-85
2023/07/31 08:57:58;;;;;;;0.90;0.60;;;26.70;87.50;;;;;;5110643;28;20201;-84
2023/07/31 09:00:27;;;;;;;0.90;0.50;;;26.80;87.70;;;;;;5106828;28;20193;-81
2023/07/31 09:03:01;;;;;;;0.40;0.40;;;26.80;87.70;;;;;;5112125;28;20439;-86
2023/07/31 09:05:33;;;;;;;1.73;0.43;;;26.90;87.50;;;;;;5110996;28;20204;-85
2023/07/31 09:08:03;;;;;;;0.52;0.52;;;26.90;87.40;;;;;;5106605;28;20284;-88
2023/07/31 09:10:31;;;;;;;0.47;0.47;;;27.00;87.20;;;;;;5111919;28;20247;-81
2023/07/31 09:13:03;;;;;;;0.90;0.75;;;27.10;87.10;;;;;;5100250;28;20193;-91
2023/07/31 09:15:32;;;;;;;0.40;0.40;;;27.10;87.40;;;;;;5112245;28;20220;-85
2023/07/31 09:18:07;;;;;;;1.20;0.85;;;27.10;86.90;;;;;;5110863;28;20270;-88
2023/07/31 09:20:38;;;;;;;0.45;0.43;;;27.10;86.60;;;;;;5113869;28;20239;-86
2023/07/31 09:23:14;;;;;;;0.55;0.55;;;27.10;86.60;;;;;;5105736;27;20208;-88
2023/07/31 09:25:45;;;;;;;0.43;0.43;;;27.10;86.80;;;;;;5110942;28;20212;-89
2023/07/31 09:28:14;;;;;;;1.35;0.47;;;27.10;86.70;;;;;;5108070;28;20201;-87
2023/07/31 09:30:56;;;;;;;0.93;0.55;;;27.20;86.60;;;;;;5111658;27;20563;-86
2023/07/31 09:34:01;;;;;;;1.08;0.73;;;27.20;86.50;;;;;;5106776;28;20870;-86
2023/07/31 09:36:40;;;;;;;0.40;0.40;;;27.20;86.40;;;;;;5108404;28;20201;-85
2023/07/31 09:39:11;;;;;;;1.02;0.93;;;27.10;86.30;;;;;;5111238;28;20216;-88
2023/07/31 09:44:27;;;;;;;;;;;;;;;;;;;;;
2023/07/31 09:47:07;;;;;;;1.02;0.65;;;27.10;85.90;;;;;;5045171;28;20210;-88
2023/07/31 09:49:40;;;;;;;0.28;0.28;;;27.10;85.80;;;;;;5044228;28;20203;-88
2023/07/31 09:52:16;;;;;;;1.25;0.80;;;27.10;85.80;;;;;;5046119;28;20601;-87
2023/07/31 09:54:44;;;;;;;0.65;0.43;;;27.10;85.70;;;;;;5045369;28;20223;-87
2023/07/31 09:57:16;;;;;;;0.40;0.40;;;27.20;85.80;;;;;;5042109;28;20199;-85
2023/07/31 09:59:52;;;;;;;0.77;0.70;;;27.10;85.70;;;;;;5051518;28;20202;-87
2023/07/31 10:02:24;;;;;;;0.77;0.60;;;27.20;86.00;;;;;;5044591;28;20199;-89
2023/07/31 10:04:54;;;;;;;1.20;1.05;;;27.20;85.80;;;;;;5039305;28;20199;-87
2023/07/31 10:07:27;;;;;;;0.43;0.43;;;27.20;85.80;;;;;;5041990;28;20577;-87
2023/07/31 10:09:58;;;;;;;2.10;1.05;;;27.20;85.60;;;;;;5047108;28;20205;-86
2023/07/31 10:12:33;;;;;;;1.02;0.68;;;27.20;85.70;;;;;;5043156;28;20199;-86
2023/07/31 10:15:09;;;;;;;0.32;0.30;;;27.20;85.40;;;;;;5041886;28;20232;-87
2023/07/31 10:17:51;;;;;;;1.27;0.73;;;27.20;85.20;;;;;;5048093;28;20284;-85
2023/07/31 10:20:21;;;;;;;0.65;0.50;;;27.20;85.10;;;;;;5037991;28;20195;-85
2023/07/31 10:22:52;;;;;;;11.80;1.05;;;27.20;85.00;;;;;;5041480;28;20225;-87
2023/07/31 10:25:23;;;;;;;1.02;0.65;;;27.20;84.80;;;;;;5040854;28;20210;-86
2023/07/31 10:27:53;;;;;;;2.90;0.40;;;27.30;84.80;;;;;;5047447;28;20659;-86
2023/07/31 10:30:25;;;;;;;0.32;0.28;;;27.30;84.80;;;;;;5041597;28;20203;-83
2023/07/31 10:32:56;;;;;;;0.93;0.60;;;27.30;84.70;;;;;;5041456;28;20225;-89
2023/07/31 10:35:26;;;;;;;1.10;0.63;;;27.40;84.60;;;;;;5050896;28;20222;-85
2023/07/31 10:37:56;;;;;;;2.13;0.82;;;27.50;84.30;;;;;;5050704;28;20680;-88
2023/07/31 10:40:26;;;;;;;0.95;0.63;;;27.50;84.50;;;;;;5045465;28;20203;-85
2023/07/31 10:42:57;;;;;;;0.80;0.65;;;27.50;84.20;;;;;;5041321;28;20773;-86
2023/07/31 10:45:32;;;;;;;0.80;0.68;;;27.60;84.10;;;;;;5043986;28;20671;-85
2023/07/31 10:48:02;;;;;;;0.65;0.45;;;27.60;83.90;;;;;;5045932;28;20903;-86
2023/07/31 10:50:33;;;;;;;0.35;0.35;;;27.70;83.80;;;;;;5046615;28;20709;-87
2023/07/31 10:53:07;;;;;;;0.40;0.40;;;27.80;83.50;;;;;;5045693;28;20202;-87
2023/07/31 10:55:41;;;;;;;0.70;0.65;;;27.90;83.50;;;;;;5046882;28;20222;-86
2023/07/31 10:58:15;;;;;;;1.00;0.63;;;28.00;83.20;;;;;;5045745;28;20194;-87
2023/07/31 11:00:45;;;;;;;0.47;0.45;;;28.20;83.00;;;;;;5040153;28;20317;-89
2023/07/31 11:03:17;;;;;;;0.50;0.50;;;28.30;82.90;;;;;;5056780;28;20197;-87
2023/07/31 11:05:48;;;;;;;1.25;0.55;;;28.30;82.20;;;;;;5022559;28;20285;-86
2023/07/31 11:08:20;;;;;;;3.60;0.60;;;28.30;81.90;;;;;;5045412;28;20211;-86
2023/07/31 11:10:51;;;;;;;1.05;0.60;;;28.30;81.50;;;;;;5051957;28;20191;-87
2023/07/31 11:13:19;;;;;;;2.80;1.00;;;28.30;81.10;;;;;;5045571;28;20203;-88
2023/07/31 11:15:48;;;;;;;0.32;0.30;;;28.30;82.20;;;;;;5049935;28;20582;-88
2023/07/31 11:18:18;;;;;;;2.30;0.70;;;28.50;81.50;;;;;;5051067;28;20227;-88
2023/07/31 11:20:46;;;;;;;1.00;0.55;;;28.50;80.80;;;;;;5043781;28;20625;-87
2023/07/31 11:23:18;;;;;;;0.47;0.47;;;28.60;80.50;;;;;;5047958;28;20202;-86
2023/07/31 11:25:47;;;;;;;0.68;0.68;;;28.70;80.00;;;;;;5045652;28;20202;-87
2023/07/31 11:28:17;;;;;;;1.13;0.95;;;28.70;80.00;;;;;;5050368;28;20943;-87
2023/07/31 11:30:47;;;;;;;0.30;0.30;;;28.80;80.20;;;;;;5043896;28;20201;-88
2023/07/31 11:33:15;;;;;;;0.32;0.32;;;28.80;79.70;;;;;;5050037;28;20286;-88
2023/07/31 11:35:46;;;;;;;0.30;0.30;;;28.80;79.60;;;;;;5042838;28;20214;-86
2023/07/31 11:38:24;;;;;;;0.40;0.40;;;28.80;78.70;;;;;;5043975;28;20191;-88
2023/07/31 11:41:02;;;;;;;1.00;0.55;;;28.80;78.70;;;;;;5043893;28;20195;-90
2023/07/31 11:43:32;;;;;;;3.13;0.88;;;28.80;79.00;;;;;;5039584;28;20805;-89
2023/07/31 11:46:03;;;;;;;0.90;0.90;;;28.80;78.70;;;;;;5041738;28;20620;-88
2023/07/31 11:48:35;;;;;;;0.57;0.50;;;28.80;78.10;;;;;;5037598;28;20218;-88
2023/07/31 11:51:05;;;;;;;2.72;0.70;;;28.80;78.20;;;;;;5047328;28;20199;-88
2023/07/31 11:53:41;;;;;;;0.80;0.65;;;28.70;78.00;;;;;;5050555;28;20298;-87
2023/07/31 11:56:12;;;;;;;0.63;0.55;;;28.80;78.10;;;;;;5045602;28;20209;-88
2023/07/31 11:58:42;;;;;;;1.17;0.70;;;28.90;78.20;;;;;;5051552;28;20202;-87
2023/07/31 12:01:11;;;;;;;1.60;0.98;;;28.90;78.10;;;;;;5048615;28;20195;-87
2023/07/31 12:03:43;;;;;;;0.40;0.40;;;29.00;77.70;;;;;;5048864;28;20195;-83
2023/07/31 12:06:11;;;;;;;0.43;0.43;;;29.10;77.90;;;;;;5033083;28;20195;-84
2023/07/31 12:08:41;;;;;;;0.40;0.40;;;29.10;78.10;;;;;;5046516;28;20198;-84
2023/07/31 12:11:10;;;;;;;0.47;0.40;;;29.10;78.00;;;;;;5042154;28;20231;-85
2023/07/31 12:13:39;;;;;;;0.75;0.47;;;29.00;77.70;;;;;;5030468;28;20200;-84
2023/07/31 12:16:07;;;;;;;0.43;0.43;;;29.00;77.70;;;;;;5030934;28;20313;-83
2023/07/31 12:18:37;;;;;;;1.10;0.90;;;29.00;77.50;;;;;;5045205;28;20231;-83
2023/07/31 12:21:08;;;;;;;0.68;0.68;;;28.90;77.30;;;;;;5042887;28;20295;-85
2023/07/31 12:23:38;;;;;;;0.43;0.43;;;28.90;77.40;;;;;;5049675;28;20187;-85
2023/07/31 12:26:09;;;;;;;0.55;0.47;;;28.90;77.50;;;;;;5043781;28;20196;-84
2023/07/31 12:28:39;;;;;;;0.35;0.35;;;28.80;77.50;;;;;;5045434;28;20194;-84
2023/07/31 12:31:10;;;;;;;0.38;0.38;;;28.80;77.50;;;;;;5038664;28;20195;-85
2023/07/31 12:33:40;;;;;;;0.30;0.30;;;28.80;77.20;;;;;;5048107;28;20191;-82
2023/07/31 12:36:10;;;;;;;0.73;0.55;;;28.70;77.20;;;;;;5041125;28;20252;-84
2023/07/31 12:38:39;;;;;;;0.82;0.73;;;28.70;77.10;;;;;;5046645;28;20218;-85
2023/07/31 12:41:09;;;;;;;0.38;0.38;;;28.70;77.10;;;;;;5045973;28;20208;-86
2023/07/31 12:43:38;;;;;;;0.65;0.65;;;28.60;77.20;;;;;;5052637;28;20237;-85
2023/07/31 12:46:08;;;;;;;0.60;0.60;;;28.60;77.00;;;;;;5044177;28;20283;-85
2023/07/31 12:48:37;;;;;;;0.20;0.20;;;28.60;76.90;;;;;;5048389;28;20191;-84
2023/07/31 12:51:07;;;;;;;0.40;0.40;;;28.60;76.80;;;;;;5046876;28;20193;-84
2023/07/31 12:53:36;;;;;;;0.40;0.40;;;28.60;76.90;;;;;;5050747;28;20199;-85
2023/07/31 12:56:04;;;;;;;0.40;0.30;;;28.70;77.00;;;;;;5042405;28;20235;-84
2023/07/31 12:58:34;;;;;;;0.30;0.30;;;28.70;76.70;;;;;;5048992;28;20195;-83
2023/07/31 13:01:03;;;;;;;0.28;0.28;;;28.80;76.10;;;;;;5045660;28;20257;-85
2023/07/31 13:03:31;;;;;;;0.55;0.40;;;28.90;76.20;;;;;;5045674;28;20203;-85
2023/07/31 13:06:00;;;;;;;1.23;0.90;;;28.90;76.10;;;;;;5048323;28;20662;-93